Home PIREPS Pireps

Flight BEL894

  • Submitted By: Serge Morabito
  • Departure Airport: Paris - Charles-de-Gaulle (LFPG)
  • Arrival Airport: barcelona airport (LEBL)
  • Aircraft: A320-214 (OO-SNB)
  • Flight Time: 01.35
  • Date Submitted: 16/09/2016
  • Route: ERIXU UN860 ETAMO UN855 DEGOL UN855 PPG UP84 ALBER
  • Status: Accepted
Flight Details
Gross Revenue:
(145 load / € 0.00 per unit
€ 0.00
Fuel Cost:
(3924 fuel used @ 0 / unit)
€ 0.00

Additional Log Information:

View Log

Aircraft Used in flight is A320 neo (v2.6r2) Brussels Airlines
14:23 Brakes are On
14:24 Brakes are Released
14:31 You Took off @ 132 Knots and Flaps at Position 3
Departure Weather
LFPG 161200Z 24015KT 9999 FEW034TCU BKN046 21/13 Q1013 NOSIGrn
14:31 You Landed @ 134 Knots and with 50 Vertical Speed
Arrival Weather
LEBL 161200Z 22011KT 9999 FEW035 24/12 Q1017 NOSIGrn
14:31 Landing Gear Up @ 164 Knots and 640 Feet
14:32 Below 10000 feet you are not allowed to go over 250 knots
14:36 You exceeded maximum bank angle
15:47 Landing Gear Down @ 140 Knots and 1990 Feet
15:50 Brakes are On
15:50 Brakes are Released
15:50 Brakes are On
15:51 Brakes are Released
15:56 Brakes are On
15:58 Brussels Bel-Track1.0.1.2

Route Map

Corporate About Us Our Team Vacancies Information Fleet Route Network Rules and Regulations Operations Flight Schedules Event Center Tours Partners IVAO Vatsim Acars dev FSCB

fb Users Online Belgium John Smits,
1 Pilot(s) and 112 Guest(s) Online
CMS by phpVMS - Design by Crazycreatives.com - Copyright © 2019 - Brussels Airlines Virtual